createdAt,value
2017-12-22T00:00:48.729Z,0
2017-12-22T00:01:32.496Z,0
2017-12-22T00:02:01.687Z,0
2017-12-22T00:02:44.942Z,0
2017-12-22T00:03:27.487Z,0
2017-12-22T00:03:55.384Z,0
2017-12-22T00:04:23.919Z,0
2017-12-22T00:04:52.889Z,0
2017-12-22T00:05:36.725Z,0
2017-12-22T00:06:05.899Z,0
2017-12-22T00:06:49.063Z,0
2017-12-22T00:07:18.910Z,0
2017-12-22T00:07:48.195Z,0
2017-12-22T00:08:31.215Z,0
2017-12-22T00:09:15.515Z,0
2017-12-22T00:10:42.814Z,0
2017-12-22T00:11:54.841Z,0
2017-12-22T00:13:36.829Z,0
2017-12-22T00:14:20.713Z,0
2017-12-22T00:14:49.205Z,0
2017-12-22T00:16:01.540Z,0
2017-12-22T00:16:44.805Z,0
2017-12-22T00:18:52.405Z,0
2017-12-22T00:19:20.422Z,0
2017-12-22T00:19:49.650Z,0
2017-12-22T00:20:17.688Z,0
2017-12-22T00:20:46.624Z,0
2017-12-22T00:21:14.530Z,0
2017-12-22T00:21:58.838Z,0
2017-12-22T00:22:28.203Z,0
2017-12-22T00:22:56.132Z,0
2017-12-22T00:23:25.417Z,0
2017-12-22T00:23:53.854Z,0
2017-12-22T00:24:22.672Z,0
2017-12-22T00:25:20.697Z,0
2017-12-22T00:25:49.184Z,0
2017-12-22T00:26:17.984Z,0
2017-12-22T00:26:47.764Z,0
2017-12-22T00:27:17.812Z,0
2017-12-22T00:30:11.808Z,0
2017-12-22T00:31:11.942Z,0
2017-12-22T00:32:38.572Z,0
2017-12-22T00:33:35.637Z,0
2017-12-22T00:34:05.073Z,0
2017-12-22T00:35:21.801Z,0
2017-12-22T00:35:51.261Z,0
2017-12-22T00:37:02.385Z,0
2017-12-22T00:37:31.890Z,0
2017-12-22T00:38:14.538Z,0
2017-12-22T00:39:11.597Z,0
2017-12-22T00:40:08.712Z,0
2017-12-22T00:40:37.542Z,0
2017-12-22T00:41:07.353Z,0
2017-12-22T00:41:36.048Z,0
2017-12-22T00:42:04.910Z,0
2017-12-22T00:42:34.057Z,0
2017-12-22T00:43:03.281Z,0
2017-12-22T00:43:45.733Z,0
2017-12-22T00:44:14.168Z,0
2017-12-22T00:44:57.324Z,0
2017-12-22T00:45:25.269Z,0
2017-12-22T00:45:53.869Z,0
2017-12-22T00:46:22.737Z,0
2017-12-22T00:47:17.730Z,0
2017-12-22T00:47:45.662Z,0
2017-12-22T00:49:13.402Z,0
2017-12-22T00:49:41.643Z,0
2017-12-22T00:50:14.060Z,0
2017-12-22T00:51:11.861Z,0
2017-12-22T00:51:40.756Z,0
2017-12-22T00:52:24.495Z,0
2017-12-22T00:52:53.586Z,0
2017-12-22T00:54:18.952Z,0
2017-12-22T00:54:47.368Z,0
2017-12-22T00:55:30.611Z,0
2017-12-22T00:55:59.125Z,0
2017-12-22T00:56:29.841Z,0
2017-12-22T00:57:14.004Z,0
2017-12-22T00:57:57.769Z,0
2017-12-22T00:58:27.088Z,0
2017-12-22T00:58:55.446Z,0
2017-12-22T00:59:24.356Z,0
2017-12-22T01:01:19.722Z,0
2017-12-22T01:02:16.789Z,0
2017-12-22T01:03:57.832Z,0
2017-12-22T01:04:26.791Z,0
2017-12-22T01:04:55.366Z,0
2017-12-22T01:06:07.643Z,0
2017-12-22T01:06:35.858Z,0
2017-12-22T01:07:48.993Z,0
2017-12-22T01:08:17.378Z,0
2017-12-22T01:08:45.707Z,0
2017-12-22T01:09:59.040Z,0
2017-12-22T01:10:27.060Z,0
2017-12-22T01:11:10.845Z,0
2017-12-22T01:11:39.281Z,0
2017-12-22T01:12:07.304Z,0
2017-12-22T01:12:35.268Z,0
2017-12-22T01:13:17.780Z,0
2017-12-22T01:14:29.033Z,0
2017-12-22T01:14:57.552Z,0
2017-12-22T01:15:25.477Z,0
2017-12-22T01:15:53.390Z,0
2017-12-22T01:16:21.770Z,0
2017-12-22T01:16:50.211Z,0
2017-12-22T01:17:18.634Z,0
2017-12-22T01:17:48.130Z,0
2017-12-22T01:18:17.418Z,0
2017-12-22T01:18:45.789Z,0
2017-12-22T01:19:15.495Z,0
2017-12-22T01:19:43.911Z,0
2017-12-22T01:20:26.879Z,0
2017-12-22T01:20:55.324Z,0
2017-12-22T01:21:23.749Z,0
2017-12-22T01:21:52.631Z,0
2017-12-22T01:22:21.590Z,0
2017-12-22T01:22:50.349Z,0
2017-12-22T01:23:18.942Z,0
2017-12-22T01:23:47.272Z,0
2017-12-22T01:24:15.307Z,0
2017-12-22T01:24:43.985Z,0
2017-12-22T01:27:08.046Z,0
2017-12-22T01:27:36.075Z,0
2017-12-22T01:28:04.512Z,0
2017-12-22T01:29:11.017Z,0
2017-12-22T01:29:40.531Z,0
2017-12-22T01:30:08.876Z,0
2017-12-22T01:30:38.741Z,0
2017-12-22T01:32:20.132Z,0
2017-12-22T01:32:47.969Z,0
2017-12-22T01:33:16.344Z,0
2017-12-22T01:33:44.359Z,0
2017-12-22T01:34:12.800Z,0
2017-12-22T01:34:41.703Z,0
2017-12-22T01:35:10.131Z,0
2017-12-22T01:35:38.139Z,0
2017-12-22T01:36:06.143Z,0
2017-12-22T01:36:54.481Z,0
2017-12-22T01:37:22.915Z,0
2017-12-22T01:37:50.850Z,0
2017-12-22T01:38:19.822Z,0
2017-12-22T01:38:48.247Z,0
2017-12-22T01:39:18.775Z,0
2017-12-22T01:39:47.217Z,0
2017-12-22T01:40:16.178Z,0
2017-12-22T01:40:44.936Z,0
2017-12-22T01:41:14.303Z,0
2017-12-22T01:43:08.778Z,0
2017-12-22T01:43:37.734Z,0
2017-12-22T01:44:05.658Z,0
2017-12-22T01:46:03.372Z,0
2017-12-22T01:46:31.296Z,0
2017-12-22T01:46:59.755Z,0
2017-12-22T01:47:27.764Z,0
2017-12-22T01:47:55.774Z,0
2017-12-22T01:48:24.214Z,0
2017-12-22T01:48:52.239Z,0
2017-12-22T01:49:20.246Z,0
2017-12-22T01:49:48.177Z,0
2017-12-22T01:50:18.607Z,0
2017-12-22T01:50:46.648Z,0
2017-12-22T01:51:14.588Z,0
2017-12-22T01:51:44.575Z,0
2017-12-22T01:52:12.913Z,0
2017-12-22T01:52:41.661Z,0
2017-12-22T01:53:53.242Z,0
2017-12-22T01:54:24.640Z,0
2017-12-22T01:54:54.246Z,0
2017-12-22T01:55:22.260Z,0
2017-12-22T01:55:50.507Z,0
2017-12-22T01:56:18.570Z,0
2017-12-22T01:56:47.000Z,0
2017-12-22T01:57:14.993Z,0
2017-12-22T01:57:43.867Z,0
2017-12-22T01:58:26.389Z,0
2017-12-22T01:58:54.421Z,0
2017-12-22T01:59:24.155Z,0
2017-12-22T01:59:53.454Z,0
2017-12-22T02:00:22.284Z,0
2017-12-22T02:00:51.469Z,0
2017-12-22T02:01:20.331Z,0
2017-12-22T02:01:49.323Z,0
2017-12-22T02:03:02.212Z,0
2017-12-22T02:03:31.299Z,0
2017-12-22T02:03:59.760Z,0
2017-12-22T02:04:53.452Z,0
2017-12-22T02:05:50.427Z,0
2017-12-22T02:06:18.786Z,0
2017-12-22T02:06:46.786Z,0
2017-12-22T02:09:09.695Z,0
2017-12-22T02:09:38.878Z,0
2017-12-22T02:10:07.205Z,0
2017-12-22T02:10:35.214Z,0
2017-12-22T02:11:04.912Z,0
2017-12-22T02:11:36.587Z,0
2017-12-22T02:12:05.090Z,0
2017-12-22T02:12:49.411Z,0
2017-12-22T02:13:18.256Z,0
2017-12-22T02:13:47.122Z,0
2017-12-22T02:15:42.085Z,0
2017-12-22T02:16:24.871Z,0
2017-12-22T02:16:54.144Z,0
2017-12-22T02:17:37.402Z,0
2017-12-22T02:18:06.089Z,0
2017-12-22T02:18:34.174Z,0
2017-12-22T02:19:54.204Z,0
2017-12-22T02:20:22.672Z,0
2017-12-22T02:22:20.904Z,0
2017-12-22T02:22:48.839Z,0
2017-12-22T02:23:17.282Z,0
2017-12-22T02:23:45.894Z,0
2017-12-22T02:24:28.802Z,0
2017-12-22T02:25:25.798Z,0
2017-12-22T02:25:53.822Z,0
2017-12-22T02:26:21.856Z,0
2017-12-22T02:26:50.691Z,0
2017-12-22T02:27:18.710Z,0
2017-12-22T02:28:01.693Z,0
2017-12-22T02:28:45.435Z,0
2017-12-22T02:29:13.444Z,0
2017-12-22T02:29:56.485Z,0
2017-12-22T02:30:24.418Z,0
2017-12-22T02:30:52.448Z,0
2017-12-22T02:31:41.244Z,0
2017-12-22T02:32:24.572Z,0
2017-12-22T02:32:53.421Z,0
2017-12-22T02:33:55.900Z,0
2017-12-22T02:34:24.891Z,0
2017-12-22T02:34:52.916Z,0
2017-12-22T02:35:20.839Z,0
2017-12-22T02:35:55.142Z,0
2017-12-22T02:36:38.667Z,0
2017-12-22T02:37:07.098Z,0
2017-12-22T02:37:35.548Z,0
2017-12-22T02:38:04.905Z,0
2017-12-22T02:38:33.166Z,0
2017-12-22T02:39:01.726Z,0
2017-12-22T02:39:30.155Z,0
2017-12-22T02:39:58.953Z,0
2017-12-22T02:40:56.023Z,0
2017-12-22T02:41:24.460Z,0
2017-12-22T02:41:52.470Z,0
2017-12-22T02:42:23.878Z,0
2017-12-22T02:42:52.221Z,0
2017-12-22T02:43:21.722Z,0
2017-12-22T02:43:50.583Z,0
2017-12-22T02:44:18.508Z,0
2017-12-22T02:45:02.256Z,0
2017-12-22T02:45:33.521Z,0
2017-12-22T02:46:02.052Z,0
2017-12-22T02:46:31.154Z,0
2017-12-22T02:46:59.932Z,0
2017-12-22T02:47:28.480Z,0
2017-12-22T02:48:00.426Z,0
2017-12-22T02:48:29.272Z,0
2017-12-22T02:50:09.827Z,0
2017-12-22T02:51:07.690Z,0
2017-12-22T02:51:36.334Z,0
2017-12-22T02:52:05.693Z,0
2017-12-22T02:52:34.055Z,0
2017-12-22T02:53:31.920Z,0
2017-12-22T02:54:00.373Z,0
2017-12-22T02:54:43.321Z,0
2017-12-22T02:55:11.352Z,0
2017-12-22T02:55:39.803Z,0
2017-12-22T02:56:08.253Z,0
2017-12-22T02:56:36.255Z,0
2017-12-22T02:57:04.295Z,0
2017-12-22T02:57:33.102Z,0
2017-12-22T02:58:02.400Z,0
2017-12-22T02:58:30.958Z,0
2017-12-22T02:58:59.440Z,0
2017-12-22T02:59:27.692Z,0
2017-12-22T02:59:55.949Z,0
2017-12-22T03:00:24.821Z,0
2017-12-22T03:03:59.603Z,0
2017-12-22T03:04:28.027Z,0
2017-12-22T03:04:56.862Z,0
2017-12-22T03:05:24.792Z,0
2017-12-22T03:05:53.218Z,0
2017-12-22T03:06:21.667Z,0
2017-12-22T03:06:51.430Z,0
2017-12-22T03:07:22.429Z,0
2017-12-22T03:07:50.448Z,0
2017-12-22T03:08:18.467Z,0
2017-12-22T03:08:47.266Z,0
2017-12-22T03:09:15.818Z,0
2017-12-22T03:09:44.969Z,0
2017-12-22T03:10:13.869Z,0
2017-12-22T03:10:55.598Z,0
2017-12-22T03:12:06.710Z,0
2017-12-22T03:14:02.567Z,0
2017-12-22T03:14:45.542Z,0
2017-12-22T03:15:13.470Z,0
2017-12-22T03:16:40.111Z,0
2017-12-22T03:17:08.441Z,0
2017-12-22T03:17:36.483Z,0
2017-12-22T03:18:04.949Z,0
2017-12-22T03:18:33.385Z,0
2017-12-22T03:19:01.417Z,0
2017-12-22T03:20:13.332Z,0
2017-12-22T03:20:42.291Z,0
2017-12-22T03:21:10.708Z,0
2017-12-22T03:23:34.161Z,0
2017-12-22T03:24:02.512Z,0
2017-12-22T03:24:59.749Z,0
2017-12-22T03:25:28.328Z,0
2017-12-22T03:25:57.154Z,0
2017-12-22T03:26:25.622Z,0
2017-12-22T03:26:53.872Z,0
2017-12-22T03:29:19.357Z,0
2017-12-22T03:29:47.380Z,0
2017-12-22T03:30:16.201Z,0
2017-12-22T03:30:59.141Z,0
2017-12-22T03:31:27.173Z,0
2017-12-22T03:31:55.198Z,0
2017-12-22T03:34:19.466Z,0
2017-12-22T03:34:47.972Z,0
2017-12-22T03:35:16.819Z,0
2017-12-22T03:35:45.322Z,0
2017-12-22T03:36:14.122Z,0
2017-12-22T03:38:08.330Z,0
2017-12-22T03:39:20.178Z,0
2017-12-22T03:39:48.381Z,0
2017-12-22T03:40:17.020Z,0
2017-12-22T03:40:45.474Z,0
2017-12-22T03:41:14.008Z,0
2017-12-22T03:41:43.149Z,0
2017-12-22T03:42:40.994Z,0
2017-12-22T03:43:08.921Z,0
2017-12-22T03:43:38.422Z,0
2017-12-22T03:46:03.199Z,0
2017-12-22T03:47:32.089Z,0
2017-12-22T03:47:59.968Z,0
2017-12-22T03:48:28.494Z,0
2017-12-22T03:48:56.722Z,0
2017-12-22T03:49:25.580Z,0
2017-12-22T03:49:54.003Z,0
2017-12-22T03:50:22.848Z,0
2017-12-22T03:50:50.877Z,0
2017-12-22T03:51:20.155Z,0
2017-12-22T03:52:45.243Z,0
2017-12-22T03:53:13.295Z,0
2017-12-22T03:53:41.294Z,0
2017-12-22T03:54:10.215Z,0
2017-12-22T03:54:38.147Z,0
2017-12-22T03:55:06.597Z,0
2017-12-22T03:55:35.141Z,0
2017-12-22T03:57:14.838Z,0
2017-12-22T03:57:42.748Z,0
2017-12-22T03:58:11.723Z,0
2017-12-22T03:58:40.437Z,0
2017-12-22T03:59:08.369Z,0
2017-12-22T03:59:37.506Z,0
2017-12-22T04:00:06.432Z,0
2017-12-22T04:00:34.787Z,0
2017-12-22T04:01:02.810Z,0
2017-12-22T04:02:14.395Z,0
2017-12-22T04:02:43.580Z,0
2017-12-22T04:03:11.714Z,0
2017-12-22T04:03:40.126Z,0
2017-12-22T04:04:08.553Z,0
2017-12-22T04:04:37.812Z,0
2017-12-22T04:05:20.600Z,0
2017-12-22T04:05:48.619Z,0
2017-12-22T04:06:16.791Z,0
2017-12-22T04:06:45.212Z,0
2017-12-22T04:07:14.158Z,0
2017-12-22T04:07:42.902Z,0
2017-12-22T04:08:10.911Z,0
2017-12-22T04:08:38.975Z,0
2017-12-22T04:10:34.352Z,0
2017-12-22T04:11:03.165Z,0
2017-12-22T04:14:23.948Z,0
2017-12-22T04:14:53.123Z,0
2017-12-22T04:15:21.555Z,0
2017-12-22T04:15:50.399Z,0
2017-12-22T04:16:19.081Z,0
2017-12-22T04:16:47.113Z,0
2017-12-22T04:17:58.945Z,0
2017-12-22T04:18:27.198Z,0
2017-12-22T04:18:55.539Z,0
2017-12-22T04:19:24.324Z,0
2017-12-22T04:19:52.875Z,0
2017-12-22T04:20:21.316Z,0
2017-12-22T04:20:49.737Z,0
2017-12-22T04:21:18.277Z,0
2017-12-22T04:21:47.038Z,0
2017-12-22T04:22:30.369Z,0
2017-12-22T04:22:58.399Z,0
2017-12-22T04:23:26.419Z,0
2017-12-22T04:23:54.958Z,0
2017-12-22T04:24:23.191Z,0
2017-12-22T04:24:51.224Z,0
2017-12-22T04:26:02.888Z,0
2017-12-22T04:26:32.628Z,0
2017-12-22T04:27:05.607Z,0
2017-12-22T04:28:57.508Z,0
2017-12-22T04:29:26.448Z,0
2017-12-22T04:29:55.179Z,0
2017-12-22T04:30:24.903Z,0
2017-12-22T04:30:54.056Z,0
2017-12-22T04:31:21.986Z,0
2017-12-22T04:31:49.988Z,0
2017-12-22T04:32:18.014Z,0
2017-12-22T04:32:46.035Z,0
2017-12-22T04:33:14.599Z,0
2017-12-22T04:33:57.059Z,0
2017-12-22T04:34:25.070Z,0
2017-12-22T04:34:52.992Z,0
2017-12-22T04:35:21.952Z,0
2017-12-22T04:35:49.884Z,0
2017-12-22T04:36:18.297Z,0
2017-12-22T04:36:46.816Z,0
2017-12-22T04:37:14.757Z,0
2017-12-22T04:38:26.901Z,0
2017-12-22T04:38:56.110Z,0
2017-12-22T04:39:24.078Z,0
2017-12-22T04:39:53.071Z,0
2017-12-22T04:40:21.004Z,0
2017-12-22T04:40:49.320Z,0
2017-12-22T04:41:17.357Z,0
2017-12-22T04:41:59.889Z,0
2017-12-22T04:43:12.668Z,0
2017-12-22T04:43:41.504Z,0
2017-12-22T04:44:10.029Z,0
2017-12-22T04:44:38.503Z,0
2017-12-22T04:45:50.872Z,0
2017-12-22T04:46:18.901Z,0
2017-12-22T04:46:46.917Z,0
2017-12-22T04:47:14.934Z,0
2017-12-22T04:47:43.382Z,0
2017-12-22T04:48:11.718Z,0
2017-12-22T04:48:54.729Z,0
2017-12-22T04:49:23.593Z,0
2017-12-22T04:49:51.513Z,0
2017-12-22T04:50:19.439Z,0
2017-12-22T04:50:47.970Z,0
2017-12-22T04:51:16.526Z,0
2017-12-22T04:51:44.873Z,0
2017-12-22T04:52:42.727Z,0
2017-12-22T04:53:11.677Z,0
2017-12-22T04:53:40.014Z,0
2017-12-22T04:54:08.962Z,0
2017-12-22T04:54:38.484Z,0
2017-12-22T04:55:06.498Z,0
2017-12-22T04:55:35.307Z,0
2017-12-22T04:56:03.319Z,0
2017-12-22T04:56:31.769Z,0
2017-12-22T04:57:00.623Z,0
2017-12-22T04:58:24.570Z,0
2017-12-22T04:58:53.118Z,0
2017-12-22T04:59:21.888Z,0
2017-12-22T04:59:50.342Z,0
2017-12-22T05:00:19.709Z,0
2017-12-22T05:00:47.623Z,0
2017-12-22T05:01:15.639Z,0
2017-12-22T05:01:43.911Z,0
2017-12-22T05:02:12.862Z,0
2017-12-22T05:02:40.792Z,0
2017-12-22T05:03:09.136Z,0
2017-12-22T05:03:38.434Z,0
2017-12-22T05:04:07.358Z,0
2017-12-22T05:04:36.034Z,0
2017-12-22T05:05:04.037Z,0
2017-12-22T05:05:32.888Z,0
2017-12-22T05:06:00.914Z,0
2017-12-22T05:06:28.840Z,0
2017-12-22T05:06:57.180Z,0
2017-12-22T05:07:25.918Z,0
2017-12-22T05:07:54.212Z,0
2017-12-22T05:08:22.755Z,0
2017-12-22T05:08:51.468Z,0
2017-12-22T05:09:20.733Z,0
2017-12-22T05:09:49.180Z,0
2017-12-22T05:10:18.049Z,0
2017-12-22T05:10:46.491Z,0
2017-12-22T05:11:15.112Z,0
2017-12-22T05:11:43.878Z,0
2017-12-22T05:12:12.731Z,0
2017-12-22T05:12:41.921Z,0
2017-12-22T05:13:09.828Z,0
2017-12-22T05:13:38.694Z,0
2017-12-22T05:14:21.925Z,0
2017-12-22T05:14:50.706Z,0
2017-12-22T05:15:20.066Z,0
2017-12-22T05:15:48.009Z,0
2017-12-22T05:16:16.449Z,0
2017-12-22T05:16:44.799Z,0
2017-12-22T05:17:13.262Z,0
2017-12-22T05:17:41.817Z,0
2017-12-22T05:18:25.211Z,0
2017-12-22T05:18:53.242Z,0
2017-12-22T05:19:21.513Z,0
2017-12-22T05:19:49.844Z,0
2017-12-22T05:20:17.839Z,0
2017-12-22T05:20:46.801Z,0
2017-12-22T05:21:15.141Z,0
2017-12-22T05:21:43.560Z,0
2017-12-22T05:22:12.085Z,0
2017-12-22T05:22:39.918Z,0
2017-12-22T05:23:22.456Z,0
2017-12-22T05:23:51.330Z,0
2017-12-22T05:24:20.594Z,0
2017-12-22T05:25:03.919Z,0
2017-12-22T05:25:32.749Z,0
2017-12-22T05:26:00.687Z,0
2017-12-22T05:26:29.422Z,0
2017-12-22T05:26:58.897Z,0
2017-12-22T05:27:27.236Z,0
2017-12-22T05:27:55.696Z,0
2017-12-22T05:28:24.131Z,0
2017-12-22T05:28:52.507Z,0
2017-12-22T05:29:21.447Z,0
2017-12-22T05:29:49.360Z,0
2017-12-22T05:30:17.363Z,0
2017-12-22T05:30:47.189Z,0
2017-12-22T05:31:18.956Z,0
2017-12-22T05:31:46.999Z,0
2017-12-22T05:32:17.528Z,0
2017-12-22T05:33:00.005Z,0
2017-12-22T05:33:33.887Z,0
2017-12-22T05:34:02.481Z,0
2017-12-22T05:34:31.274Z,0
2017-12-22T05:34:59.283Z,0
2017-12-22T05:35:29.908Z,0
2017-12-22T05:35:58.238Z,0
2017-12-22T05:36:27.198Z,0
2017-12-22T05:38:23.022Z,0
2017-12-22T05:39:35.010Z,0
2017-12-22T05:40:19.699Z,0
2017-12-22T05:41:03.058Z,0
2017-12-22T05:42:29.123Z,0
2017-12-22T05:43:41.171Z,0
2017-12-22T05:45:50.566Z,0
2017-12-22T05:46:19.396Z,0
2017-12-22T05:46:48.269Z,0
2017-12-22T05:47:32.304Z,0
2017-12-22T05:48:01.135Z,0
2017-12-22T05:48:35.893Z,0
2017-12-22T05:49:33.384Z,0
2017-12-22T05:50:03.037Z,0
2017-12-22T05:50:31.060Z,0
2017-12-22T05:51:56.139Z,0
2017-12-22T05:52:24.805Z,0
2017-12-22T05:53:07.333Z,0
2017-12-22T05:53:35.784Z,0
2017-12-22T05:54:04.621Z,0
2017-12-22T05:54:32.651Z,0
2017-12-22T05:55:00.985Z,0
2017-12-22T05:55:28.997Z,0
2017-12-22T05:55:57.034Z,0
2017-12-22T05:56:26.058Z,0
2017-12-22T05:56:54.051Z,0
2017-12-22T05:57:23.046Z,0
2017-12-22T05:58:50.201Z,0
2017-12-22T05:59:18.202Z,0
2017-12-22T05:59:47.438Z,0
2017-12-22T06:00:15.472Z,0
2017-12-22T06:00:43.481Z,0
2017-12-22T06:01:11.495Z,0
2017-12-22T06:02:09.506Z,0
2017-12-22T06:02:38.853Z,0
2017-12-22T06:03:07.173Z,0
2017-12-22T06:03:37.033Z,0
2017-12-22T06:04:05.900Z,0
2017-12-22T06:04:34.821Z,0
2017-12-22T06:05:02.736Z,0
2017-12-22T06:06:28.844Z,0
2017-12-22T06:06:58.130Z,0
2017-12-22T06:07:26.941Z,0
2017-12-22T06:07:55.876Z,0
2017-12-22T06:08:38.235Z,0
2017-12-22T06:09:06.264Z,0
2017-12-22T06:09:34.705Z,0
2017-12-22T06:10:32.697Z,0
2017-12-22T06:11:00.932Z,0
2017-12-22T06:11:29.378Z,0
2017-12-22T06:11:58.303Z,0
2017-12-22T06:12:26.204Z,0
2017-12-22T06:12:54.547Z,0
2017-12-22T06:13:23.485Z,0
2017-12-22T06:13:52.246Z,0
2017-12-22T06:14:21.536Z,0
2017-12-22T06:14:49.880Z,0
2017-12-22T06:15:18.821Z,0
2017-12-22T06:15:47.180Z,0
2017-12-22T06:16:16.018Z,0
2017-12-22T06:16:44.434Z,0
2017-12-22T06:18:10.925Z,0
2017-12-22T06:18:39.904Z,0
2017-12-22T06:19:08.336Z,0
2017-12-22T06:19:36.335Z,0
2017-12-22T06:20:05.129Z,0
2017-12-22T06:21:46.365Z,0
2017-12-22T06:22:14.655Z,0
2017-12-22T06:22:43.526Z,0
2017-12-22T06:23:40.582Z,0
2017-12-22T06:24:09.883Z,0
2017-12-22T06:24:38.294Z,0
2017-12-22T06:25:06.715Z,0
2017-12-22T06:25:35.143Z,0
2017-12-22T06:26:20.069Z,0
2017-12-22T06:26:48.758Z,0
2017-12-22T06:27:16.718Z,0
2017-12-22T06:28:00.991Z,0
2017-12-22T06:28:44.305Z,0
2017-12-22T06:29:28.041Z,0
2017-12-22T06:29:56.892Z,0
2017-12-22T06:30:25.195Z,0
2017-12-22T06:31:19.805Z,0
2017-12-22T06:31:49.180Z,0
2017-12-22T06:32:17.327Z,0
2017-12-22T06:32:45.278Z,0
2017-12-22T06:33:14.930Z,0
2017-12-22T06:33:43.876Z,0
2017-12-22T06:35:24.478Z,0
2017-12-22T06:36:48.032Z,0
2017-12-22T06:37:16.955Z,0
2017-12-22T06:38:42.517Z,0
2017-12-22T06:39:10.951Z,0
2017-12-22T06:40:05.075Z,0
2017-12-22T06:40:33.676Z,0
2017-12-22T06:41:03.135Z,0
2017-12-22T06:43:11.711Z,0
2017-12-22T06:43:40.930Z,0
2017-12-22T06:44:23.673Z,0
2017-12-22T06:44:51.693Z,0
2017-12-22T06:45:19.726Z,0
2017-12-22T06:46:26.014Z,0
2017-12-22T06:46:55.063Z,0
2017-12-22T06:47:23.499Z,0
2017-12-22T06:47:52.277Z,0
2017-12-22T06:48:20.810Z,0
2017-12-22T06:49:03.268Z,0
2017-12-22T06:49:31.273Z,0
2017-12-22T06:50:58.739Z,0
2017-12-22T06:51:56.744Z,0
2017-12-22T06:52:24.890Z,0
2017-12-22T06:52:53.237Z,0
2017-12-22T06:53:21.249Z,0
2017-12-22T06:53:49.226Z,0
2017-12-22T06:54:19.095Z,0
2017-12-22T06:55:03.339Z,0
2017-12-22T06:55:46.112Z,0
2017-12-22T06:56:14.383Z,0
2017-12-22T06:56:50.499Z,0
2017-12-22T06:57:20.806Z,0
2017-12-22T06:58:54.496Z,0
2017-12-22T06:59:22.925Z,0
2017-12-22T06:59:50.796Z,0
2017-12-22T07:01:03.688Z,0
2017-12-22T07:01:31.701Z,0
2017-12-22T07:02:00.314Z,0
2017-12-22T07:02:29.086Z,0
2017-12-22T07:02:57.508Z,0
2017-12-22T07:03:26.465Z,0
2017-12-22T07:04:37.956Z,0
2017-12-22T07:05:06.631Z,0
2017-12-22T07:06:19.349Z,0
2017-12-22T07:06:48.101Z,0
2017-12-22T07:07:36.687Z,0
2017-12-22T07:11:17.683Z,0
2017-12-22T07:12:00.933Z,0
2017-12-22T07:12:29.842Z,0
2017-12-22T07:12:59.258Z,0
2017-12-22T07:13:41.802Z,0
2017-12-22T07:14:10.481Z,0
2017-12-22T07:14:38.912Z,0
2017-12-22T07:15:07.727Z,0
2017-12-22T07:15:36.439Z,0
2017-12-22T07:16:04.854Z,0
2017-12-22T07:16:33.531Z,0
2017-12-22T07:17:02.667Z,0
2017-12-22T07:18:43.807Z,0
2017-12-22T07:19:13.923Z,0
2017-12-22T07:19:42.508Z,0
2017-12-22T07:20:10.953Z,0
2017-12-22T07:20:38.990Z,0
2017-12-22T07:21:07.012Z,0
2017-12-22T07:21:35.879Z,0
2017-12-22T07:23:05.046Z,0
2017-12-22T07:23:33.629Z,0
2017-12-22T07:25:00.275Z,0
2017-12-22T07:25:29.506Z,0
2017-12-22T07:25:58.311Z,0
2017-12-22T07:26:27.155Z,0
2017-12-22T07:26:55.167Z,0
2017-12-22T07:27:23.884Z,0
2017-12-22T07:27:53.342Z,0
2017-12-22T07:29:27.041Z,0
2017-12-22T07:30:10.384Z,0
2017-12-22T07:30:39.276Z,0
2017-12-22T07:31:08.265Z,0
2017-12-22T07:31:36.552Z,0
2017-12-22T07:32:04.991Z,0
2017-12-22T07:32:32.998Z,0
2017-12-22T07:34:13.416Z,0
2017-12-22T07:34:42.366Z,0
2017-12-22T07:35:10.651Z,0
2017-12-22T07:35:39.829Z,0
2017-12-22T07:36:51.323Z,0
2017-12-22T07:37:19.558Z,0
2017-12-22T07:37:47.817Z,0
2017-12-22T07:38:16.168Z,0
2017-12-22T07:38:59.114Z,0
2017-12-22T07:39:28.729Z,0
2017-12-22T07:39:57.143Z,0
2017-12-22T07:41:28.390Z,0
2017-12-22T07:42:10.926Z,0
2017-12-22T07:42:39.664Z,0
2017-12-22T07:43:07.590Z,0
2017-12-22T07:43:36.914Z,0
2017-12-22T07:44:06.192Z,0
2017-12-22T07:44:35.309Z,0
2017-12-22T07:45:09.354Z,0
2017-12-22T07:45:38.342Z,0
2017-12-22T07:46:20.783Z,0
2017-12-22T07:46:51.438Z,0
2017-12-22T07:47:34.213Z,0
2017-12-22T07:48:02.758Z,0
2017-12-22T07:48:33.030Z,0
2017-12-22T07:49:16.173Z,0
2017-12-22T07:50:00.530Z,0
2017-12-22T07:51:12.514Z,0
2017-12-22T07:51:43.529Z,0
2017-12-22T07:53:54.053Z,0
2017-12-22T07:54:23.563Z,0
2017-12-22T07:55:21.210Z,4
2017-12-22T07:55:49.132Z,4
2017-12-22T07:56:18.356Z,4
2017-12-22T07:57:02.011Z,4
2017-12-22T07:57:30.202Z,4
2017-12-22T07:57:58.734Z,0
2017-12-22T07:58:56.220Z,4
2017-12-22T07:59:53.703Z,4
2017-12-22T08:00:22.381Z,8
2017-12-22T08:00:51.627Z,4
2017-12-22T08:01:20.977Z,8
2017-12-22T08:01:49.836Z,8
2017-12-22T08:03:29.913Z,8
2017-12-22T08:04:12.862Z,12
2017-12-22T08:04:41.931Z,12
2017-12-22T08:05:10.352Z,16
2017-12-22T08:05:40.339Z,16
2017-12-22T08:06:09.462Z,16
2017-12-22T08:06:37.484Z,20
2017-12-22T08:07:20.047Z,24
2017-12-22T08:08:03.237Z,24
2017-12-22T08:08:32.019Z,28
2017-12-22T08:09:01.224Z,32
2017-12-22T08:09:30.441Z,32
2017-12-22T08:10:42.755Z,40
2017-12-22T08:11:26.951Z,44
2017-12-22T08:12:10.151Z,52
2017-12-22T08:12:52.819Z,56
2017-12-22T08:13:36.106Z,64
2017-12-22T08:14:05.289Z,68
2017-12-22T08:14:47.831Z,76
2017-12-22T08:15:44.816Z,84
2017-12-22T08:16:28.088Z,92
2017-12-22T08:17:53.870Z,108
2017-12-22T08:18:36.763Z,116
2017-12-22T08:19:06.002Z,124
2017-12-22T08:19:34.030Z,132
2017-12-22T08:21:45.799Z,180
2017-12-22T08:22:59.625Z,220
2017-12-22T08:23:28.580Z,244
2017-12-22T08:23:57.871Z,264
2017-12-22T08:25:25.222Z,332
2017-12-22T08:25:53.886Z,360
2017-12-22T08:28:20.350Z,516
2017-12-22T08:29:32.669Z,588
2017-12-22T08:33:09.374Z,704
2017-12-22T08:34:06.364Z,712
2017-12-22T08:34:50.588Z,692
2017-12-22T08:35:20.719Z,672
2017-12-22T08:35:48.729Z,660
2017-12-22T08:36:46.014Z,636
2017-12-22T08:38:28.860Z,668
2017-12-22T08:38:56.870Z,692
2017-12-22T08:40:38.364Z,800
2017-12-22T08:41:25.044Z,868
2017-12-22T08:42:08.598Z,932
2017-12-22T08:42:37.221Z,972
2017-12-22T08:43:07.666Z,1012
2017-12-22T08:44:04.728Z,1080
2017-12-22T08:47:50.339Z,1440
2017-12-22T08:48:19.039Z,1496
2017-12-22T08:48:48.437Z,1552
2017-12-22T08:50:00.777Z,1680
2017-12-22T08:50:44.477Z,1780
2017-12-22T08:51:12.316Z,1856
2017-12-22T08:51:40.315Z,1924
2017-12-22T08:52:38.203Z,2080
2017-12-22T08:53:24.809Z,2180
2017-12-22T08:54:22.952Z,2304
2017-12-22T08:54:51.870Z,2364
2017-12-22T08:55:22.905Z,2424
2017-12-22T08:56:05.489Z,2488
2017-12-22T08:56:34.169Z,2544
2017-12-22T08:57:17.307Z,2616
2017-12-22T08:57:45.833Z,2664
2017-12-22T08:58:31.355Z,2764
2017-12-22T08:59:44.176Z,2952
2017-12-22T09:00:42.679Z,3124
2017-12-22T09:01:26.214Z,3252
2017-12-22T09:02:08.769Z,3388
2017-12-22T09:02:51.235Z,3536
2017-12-22T09:03:21.680Z,3632
2017-12-22T09:03:50.312Z,3732
2017-12-22T09:04:33.306Z,3892
2017-12-22T09:05:16.445Z,4064
2017-12-22T09:08:21.908Z,4792
2017-12-22T09:08:50.354Z,4892
2017-12-22T09:09:18.795Z,4968
2017-12-22T09:11:14.208Z,5144
2017-12-22T09:11:42.571Z,5180
2017-12-22T09:12:25.365Z,5232
2017-12-22T09:12:54.286Z,5280
2017-12-22T09:13:23.830Z,5344
2017-12-22T09:13:52.153Z,5412
2017-12-22T09:14:20.669Z,5484
2017-12-22T09:15:03.649Z,5632
2017-12-22T09:15:32.901Z,5740
2017-12-22T09:16:16.503Z,5880
2017-12-22T09:16:44.897Z,5964
2017-12-22T09:17:15.000Z,6032
2017-12-22T09:17:43.263Z,6108
2017-12-22T09:20:10.979Z,6428
2017-12-22T09:20:53.955Z,6580
2017-12-22T09:21:23.284Z,6708
2017-12-22T09:22:06.041Z,6912
2017-12-22T09:22:35.241Z,7048
2017-12-22T09:23:03.514Z,7148
2017-12-22T09:23:46.113Z,7268
2017-12-22T09:24:29.288Z,7384
2017-12-22T09:24:57.140Z,7468
2017-12-22T09:25:26.204Z,7560
2017-12-22T09:25:55.865Z,7664
2017-12-22T09:26:39.026Z,7820
2017-12-22T09:27:07.865Z,7948
2017-12-22T09:27:37.841Z,8112
2017-12-22T09:28:06.693Z,8284
2017-12-22T09:28:34.970Z,8480
2017-12-22T09:29:03.614Z,8684
2017-12-22T09:30:44.587Z,9292
2017-12-22T09:32:54.329Z,10684
2017-12-22T09:33:23.060Z,11116
2017-12-22T09:33:53.562Z,10828
2017-12-22T09:34:22.331Z,11080
2017-12-22T09:34:51.840Z,12116
2017-12-22T09:35:21.407Z,10900
2017-12-22T09:36:20.330Z,10600
2017-12-22T09:36:48.632Z,10544
2017-12-22T09:37:32.722Z,10536
2017-12-22T09:38:01.983Z,10540
2017-12-22T09:38:29.892Z,10568
2017-12-22T09:38:58.250Z,10636
2017-12-22T09:39:28.405Z,10684
2017-12-22T09:40:11.958Z,10760
2017-12-22T09:40:40.812Z,10784
2017-12-22T09:41:09.585Z,10796
2017-12-22T09:41:38.019Z,10788
2017-12-22T09:42:06.033Z,10788
2017-12-22T09:42:34.690Z,10780
2017-12-22T09:43:02.639Z,10720
2017-12-22T09:43:45.167Z,10664
2017-12-22T09:44:15.531Z,10920
2017-12-22T09:45:12.521Z,13648
2017-12-22T09:45:55.105Z,11508
2017-12-22T09:46:23.427Z,10792
2017-12-22T09:47:35.907Z,10268
2017-12-22T09:48:05.100Z,10088